Aérodrome :
LOGIN :

S'inscrire | Disclaimer

   EN    FR    IT 

 










Légende :    VFR   VFR Marginal   IFR   IFR Intensif   IFR Très Intensif
Visi : 
Plafond : 
>= 8 km
>= 3000ft
5 à 8 km
1000 à 3000 ft
1500m à 5 km
500 à 1000 ft
800 à 1500m
200 à 500 ft
< 800m
< 200 ft
Symboles :   Orages  Brouillard  Fortes neiges  Fortes précipitations  Vent > 20 kt
SIGMETs :   Divers  Orages  Givrage  Turbulence  Onde Orograph.  Cendres Volcan.






- Altitude de l'aérodrome : 37 ft
- Code IATA : FRO


ENFL - Florø

DERNIER METAR :
  • 190420Z 09010KT 9999 -SHRA FEW008 SCT010 BKN012 02/01 Q0996

METARs EXPIRÉS :
  • 190350Z AUTO 08009KT //// R07///// -SHRA BKN010/// OVC013/// 01/01 Q0996
  • 190320Z AUTO 08009KT //// R07///// SHRA SCT011/// BKN014/// BKN020/// 01/01 Q0996
  • 190250Z AUTO 09011KT //// R07///// FEW008/// BKN011/// OVC014/// 02/00 Q0995
  • 190220Z AUTO 10007KT 040V160 //// R07///// -SHRA FEW007/// SCT016/// OVC021/// 02/01 Q0995
  • 190150Z AUTO 17009KT //// R07///// RA FEW015/// SCT019/// BKN025/// 03/01 Q0995

TAF TAF ENFL
Valide du 19 à 00h jusqu'au 19 à 09h UTC


182300Z 1900/1909 18012KT 9999 -SHRA FEW015TCU BKN025
TEMPO 1900/1909 4000 SHRAGS BKN014CB
PROB40 1900/1909 12007KT



MET'MAP, la Météo Aéronautique d'un coup d'oeil ! - Copyright ORBIFLY Décembre 2007 - Disclaimer

ORBIFLY MET'MAP TEAM :

Programmation & Développement : Alexandra Zaïnal
Sur une idée originale de : Baudouin d'Aumeries
Assistance à la programmation : Marc-Olivier Méhu
Soutien technique & logistique : Manuel Goepfert

Contact : metmap@orbifly.com




SOURCES & CREDITS :

   NOAA